RUM5398 SBKP-SBPA
Flight info
| Callsign | RUM5398 |
|---|---|
| Flight time | N/A |
| Altitude | 34000 |
| Route | OSUDO4A SOVSI DCT ARTUT UZ38 VUKMO UBREG1B |
| Aircraft | A320/M-SDE3FGHIRWY/LB1 |
Departure
| Time | 2026-05-04 16:35 |
|---|---|
| Airport | Viracopos International Airport (SBKP) |
Arrival
| Time | N/A |
|---|---|
| Airport | Porto Alegre-Salgado Filho International Airport (SBPA) |
| Time | Latitude | Longitude | Altitude | Speed | Heading |
|---|---|---|---|---|---|
| 2026-05-04 16:10 | -23.00328 | -47.14961 | 2151 ft | 0 kts | 218° |
| 2026-05-04 16:28 | -23.00324 | -47.14958 | 2157 ft | 4 kts | 221° |
| 2026-05-04 16:28 | -23.00323 | -47.14886 | 2149 ft | 2 kts | 308° |
| 2026-05-04 16:29 | -23.00324 | -47.14884 | 2156 ft | 0 kts | 308° |
| 2026-05-04 16:31 | -23.00198 | -47.15021 | 2150 ft | 5 kts | 356° |
| 2026-05-04 16:32 | -23.00001 | -47.14831 | 2152 ft | 19 kts | 44° |
| 2026-05-04 16:33 | -22.99908 | -47.14732 | 2151 ft | 15 kts | 59° |
| 2026-05-04 16:33 | -22.99916 | -47.14603 | 2155 ft | 12 kts | 127° |
| 2026-05-04 16:34 | -23.00611 | -47.13627 | 2151 ft | 147 kts | 128° |
| 2026-05-04 16:34 | -23.01300 | -47.12650 | 2561 ft | 166 kts | 126° |
| 2026-05-04 16:35 | -23.04425 | -47.11625 | 4218 ft | 202 kts | 197° |
| 2026-05-04 16:35 | -23.09084 | -47.13160 | 5245 ft | 269 kts | 197° |
| 2026-05-04 16:36 | -23.10889 | -47.13883 | 5993 ft | 280 kts | 211° |
| 2026-05-04 16:36 | -23.13921 | -47.16620 | 7847 ft | 287 kts | 222° |
| 2026-05-04 16:37 | -23.16944 | -47.19500 | 9618 ft | 295 kts | 223° |
| 2026-05-04 16:37 | -23.18496 | -47.20976 | 10452 ft | 300 kts | 221° |
| 2026-05-04 16:37 | -23.22434 | -47.23244 | 11308 ft | 338 kts | 196° |
| 2026-05-04 16:38 | -23.27048 | -47.24460 | 12908 ft | 345 kts | 195° |
| 2026-05-04 16:39 | -23.34143 | -47.26395 | 15183 ft | 355 kts | 195° |
| 2026-05-04 16:39 | -23.38970 | -47.27714 | 16573 ft | 362 kts | 195° |
| 2026-05-04 16:40 | -23.43898 | -47.29050 | 17180 ft | 365 kts | 195° |
| 2026-05-04 16:40 | -23.48822 | -47.30386 | 17202 ft | 365 kts | 196° |
| 2026-05-04 16:41 | -23.53753 | -47.31726 | 17219 ft | 364 kts | 196° |
| 2026-05-04 16:41 | -23.61213 | -47.33754 | 18992 ft | 374 kts | 196° |
| 2026-05-04 16:42 | -23.68889 | -47.35844 | 20772 ft | 384 kts | 196° |
| 2026-05-04 16:43 | -23.74111 | -47.37266 | 21888 ft | 389 kts | 196° |
| 2026-05-04 16:43 | -23.79383 | -47.38700 | 22949 ft | 395 kts | 196° |
| 2026-05-04 16:43 | -23.82066 | -47.39433 | 23439 ft | 398 kts | 196° |
| 2026-05-04 16:44 | -23.92938 | -47.42408 | 25331 ft | 408 kts | 196° |
| 2026-05-04 16:45 | -23.98495 | -47.43919 | 26244 ft | 413 kts | 196° |
| 2026-05-04 16:46 | -24.06899 | -47.46223 | 27525 ft | 419 kts | 196° |
| 2026-05-04 16:46 | -24.12521 | -47.48021 | 28326 ft | 422 kts | 202° |
| 2026-05-04 16:47 | -24.18015 | -47.50274 | 29099 ft | 425 kts | 202° |
| 2026-05-04 16:47 | -24.23599 | -47.52568 | 29828 ft | 429 kts | 202° |
| 2026-05-04 16:48 | -24.32057 | -47.56051 | 30843 ft | 435 kts | 202° |
| 2026-05-04 16:48 | -24.34865 | -47.57206 | 31143 ft | 437 kts | 202° |
| 2026-05-04 16:49 | -24.40598 | -47.59559 | 31736 ft | 441 kts | 203° |
| 2026-05-04 16:49 | -24.46373 | -47.61928 | 32483 ft | 441 kts | 203° |
| 2026-05-04 16:50 | -24.52100 | -47.64297 | 33274 ft | 439 kts | 203° |
| 2026-05-04 16:50 | -24.57779 | -47.66644 | 34032 ft | 437 kts | 203° |
| 2026-05-04 16:51 | -24.63438 | -47.68988 | 34241 ft | 427 kts | 204° |
| 2026-05-04 16:51 | -24.66199 | -47.70129 | 34240 ft | 423 kts | 204° |
| 2026-05-04 16:52 | -24.77145 | -47.74670 | 34236 ft | 421 kts | 204° |
| 2026-05-04 16:53 | -24.85373 | -47.78076 | 34236 ft | 421 kts | 204° |
| 2026-05-04 16:54 | -24.96324 | -47.82628 | 34234 ft | 420 kts | 204° |
| 2026-05-04 16:55 | -25.12706 | -47.89455 | 34229 ft | 420 kts | 204° |
| 2026-05-04 16:56 | -25.26372 | -47.95168 | 34239 ft | 420 kts | 204° |
| 2026-05-04 16:57 | -25.34578 | -47.98585 | 34237 ft | 420 kts | 204° |
| 2026-05-04 16:58 | -25.45469 | -48.03162 | 34218 ft | 419 kts | 204° |
| 2026-05-04 17:00 | -25.61803 | -48.10033 | 34200 ft | 418 kts | 206° |
| 2026-05-04 17:01 | -25.74090 | -48.18476 | 34193 ft | 415 kts | 215° |
| 2026-05-04 17:02 | -25.83769 | -48.25358 | 34187 ft | 415 kts | 215° |
| 2026-05-04 17:03 | -25.91067 | -48.30565 | 34183 ft | 415 kts | 215° |
| 2026-05-04 17:03 | -25.98323 | -48.35763 | 34182 ft | 415 kts | 215° |
| 2026-05-04 17:04 | -26.08028 | -48.42720 | 34178 ft | 414 kts | 215° |
| 2026-05-04 17:05 | -26.17719 | -48.49675 | 34163 ft | 414 kts | 215° |
| 2026-05-04 17:06 | -26.24957 | -48.54886 | 34156 ft | 414 kts | 215° |
| 2026-05-04 17:07 | -26.30601 | -48.58947 | 34152 ft | 414 kts | 215° |
| 2026-05-04 17:07 | -26.37051 | -48.63588 | 34147 ft | 414 kts | 215° |
| 2026-05-04 17:08 | -26.44307 | -48.68847 | 34151 ft | 414 kts | 215° |
| 2026-05-04 17:09 | -26.49108 | -48.72328 | 34147 ft | 414 kts | 215° |
| 2026-05-04 17:09 | -26.53886 | -48.75844 | 34153 ft | 414 kts | 216° |
| 2026-05-04 17:10 | -26.65100 | -48.84143 | 34155 ft | 415 kts | 216° |
| 2026-05-04 17:11 | -26.69919 | -48.87695 | 34145 ft | 415 kts | 215° |
| 2026-05-04 17:12 | -26.77176 | -48.92976 | 34148 ft | 415 kts | 215° |
| 2026-05-04 17:13 | -26.89233 | -49.01794 | 34146 ft | 414 kts | 215° |
| 2026-05-04 17:14 | -26.98867 | -49.08855 | 34145 ft | 414 kts | 215° |
| 2026-05-04 17:15 | -27.06102 | -49.14175 | 34142 ft | 414 kts | 215° |
| 2026-05-04 17:16 | -27.15702 | -49.21250 | 34141 ft | 414 kts | 215° |
| 2026-05-04 17:17 | -27.25342 | -49.28357 | 34141 ft | 413 kts | 215° |
| 2026-05-04 17:18 | -27.34930 | -49.35456 | 34134 ft | 413 kts | 215° |
| 2026-05-04 17:19 | -27.44536 | -49.42572 | 34127 ft | 413 kts | 215° |
| 2026-05-04 17:20 | -27.54121 | -49.49680 | 34125 ft | 413 kts | 215° |
| 2026-05-04 17:20 | -27.61336 | -49.55030 | 34128 ft | 413 kts | 215° |
| 2026-05-04 17:21 | -27.70932 | -49.62165 | 34129 ft | 413 kts | 215° |
| 2026-05-04 17:22 | -27.75720 | -49.65709 | 34126 ft | 413 kts | 214° |
| 2026-05-04 17:23 | -27.85460 | -49.72621 | 34126 ft | 413 kts | 214° |
| 2026-05-04 17:24 | -27.92733 | -49.77797 | 34124 ft | 413 kts | 214° |
| 2026-05-04 17:25 | -28.02445 | -49.84758 | 34124 ft | 413 kts | 214° |
| 2026-05-04 17:26 | -28.12137 | -49.91704 | 34124 ft | 413 kts | 214° |
| 2026-05-04 17:27 | -28.24287 | -50.00432 | 34128 ft | 413 kts | 214° |
| 2026-05-04 17:28 | -28.33975 | -50.07425 | 34132 ft | 413 kts | 214° |
| 2026-05-04 17:29 | -28.48498 | -50.17925 | 33397 ft | 412 kts | 214° |
| 2026-05-04 17:30 | -28.55669 | -50.23108 | 31732 ft | 403 kts | 214° |
| 2026-05-04 17:31 | -28.60381 | -50.26518 | 30657 ft | 397 kts | 214° |
| 2026-05-04 17:31 | -28.67277 | -50.31532 | 29094 ft | 388 kts | 214° |
| 2026-05-04 17:32 | -28.71800 | -50.34827 | 28023 ft | 382 kts | 214° |
| 2026-05-04 17:33 | -28.78197 | -50.40027 | 26431 ft | 374 kts | 219° |
| 2026-05-04 17:33 | -28.80247 | -50.41830 | 25901 ft | 371 kts | 219° |
| 2026-05-04 17:34 | -28.86332 | -50.47130 | 24309 ft | 364 kts | 219° |
| 2026-05-04 17:34 | -28.88358 | -50.48864 | 23791 ft | 362 kts | 218° |
| 2026-05-04 17:35 | -28.94356 | -50.53977 | 22321 ft | 355 kts | 218° |
| 2026-05-04 17:35 | -28.98261 | -50.57317 | 21397 ft | 350 kts | 219° |
| 2026-05-04 17:35 | -29.00208 | -50.58989 | 20936 ft | 348 kts | 219° |
| 2026-05-04 17:36 | -29.02137 | -50.60646 | 20484 ft | 346 kts | 219° |
| 2026-05-04 17:36 | -29.04057 | -50.62297 | 20038 ft | 344 kts | 219° |
| 2026-05-04 17:36 | -29.05969 | -50.63941 | 19582 ft | 342 kts | 219° |
| 2026-05-04 17:36 | -29.07863 | -50.65566 | 19139 ft | 340 kts | 218° |
| 2026-05-04 17:37 | -29.09751 | -50.67186 | 18680 ft | 338 kts | 218° |
| 2026-05-04 17:37 | -29.11707 | -50.68624 | 18257 ft | 338 kts | 208° |
| 2026-05-04 17:37 | -29.13922 | -50.69506 | 17824 ft | 339 kts | 194° |
| 2026-05-04 17:37 | -29.16272 | -50.69783 | 17391 ft | 340 kts | 185° |
| 2026-05-04 17:38 | -29.18633 | -50.69902 | 16949 ft | 338 kts | 185° |
| 2026-05-04 17:38 | -29.20981 | -50.70022 | 16551 ft | 336 kts | 185° |
| 2026-05-04 17:38 | -29.23286 | -50.70140 | 16155 ft | 335 kts | 185° |
| 2026-05-04 17:38 | -29.25610 | -50.70261 | 15765 ft | 333 kts | 185° |
| 2026-05-04 17:39 | -29.30208 | -50.70505 | 14982 ft | 329 kts | 185° |
| 2026-05-04 17:39 | -29.32496 | -50.70616 | 14597 ft | 328 kts | 185° |
| 2026-05-04 17:39 | -29.34767 | -50.70714 | 14207 ft | 326 kts | 184° |
| 2026-05-04 17:40 | -29.37034 | -50.70808 | 13811 ft | 325 kts | 184° |
| 2026-05-04 17:40 | -29.39289 | -50.70900 | 13428 ft | 323 kts | 184° |
| 2026-05-04 17:40 | -29.41511 | -50.70992 | 13013 ft | 322 kts | 184° |
| 2026-05-04 17:40 | -29.43747 | -50.71086 | 12620 ft | 320 kts | 185° |
| 2026-05-04 17:41 | -29.45972 | -50.71184 | 12237 ft | 318 kts | 184° |
| 2026-05-04 17:41 | -29.48188 | -50.71281 | 11809 ft | 318 kts | 184° |
| 2026-05-04 17:41 | -29.50401 | -50.71378 | 11425 ft | 316 kts | 184° |
| 2026-05-04 17:41 | -29.52566 | -50.71471 | 11040 ft | 314 kts | 184° |
| 2026-05-04 17:42 | -29.54751 | -50.71566 | 10624 ft | 313 kts | 184° |
| 2026-05-04 17:42 | -29.56925 | -50.71664 | 10211 ft | 311 kts | 184° |
| 2026-05-04 17:42 | -29.59074 | -50.71758 | 9977 ft | 303 kts | 184° |
| 2026-05-04 17:42 | -29.61157 | -50.71847 | 9734 ft | 296 kts | 184° |
| 2026-05-04 17:43 | -29.63188 | -50.71931 | 9382 ft | 294 kts | 184° |
| 2026-05-04 17:43 | -29.65234 | -50.72023 | 8989 ft | 292 kts | 184° |
| 2026-05-04 17:43 | -29.67267 | -50.72118 | 8584 ft | 291 kts | 184° |
| 2026-05-04 17:43 | -29.69201 | -50.72202 | 8202 ft | 290 kts | 184° |
| 2026-05-04 17:44 | -29.71255 | -50.72442 | 7817 ft | 286 kts | 195° |
| 2026-05-04 17:44 | -29.73075 | -50.73232 | 7446 ft | 282 kts | 210° |
| 2026-05-04 17:44 | -29.74650 | -50.74538 | 7054 ft | 279 kts | 225° |
| 2026-05-04 17:44 | -29.76020 | -50.76103 | 6668 ft | 277 kts | 226° |
| 2026-05-04 17:45 | -29.77389 | -50.77662 | 6263 ft | 275 kts | 226° |
| 2026-05-04 17:45 | -29.78748 | -50.79206 | 5839 ft | 274 kts | 226° |
| 2026-05-04 17:45 | -29.80114 | -50.80745 | 5440 ft | 273 kts | 226° |
| 2026-05-04 17:45 | -29.81463 | -50.82272 | 5001 ft | 272 kts | 226° |
| 2026-05-04 17:46 | -29.82796 | -50.83783 | 4570 ft | 272 kts | 226° |
| 2026-05-04 17:46 | -29.84139 | -50.85309 | 4160 ft | 269 kts | 226° |
| 2026-05-04 17:46 | -29.85480 | -50.86835 | 4023 ft | 270 kts | 226° |
| 2026-05-04 17:46 | -29.86802 | -50.88344 | 4020 ft | 271 kts | 226° |
| 2026-05-04 17:47 | -29.88137 | -50.89868 | 4018 ft | 264 kts | 226° |
| 2026-05-04 17:47 | -29.89398 | -50.91304 | 4022 ft | 245 kts | 226° |
| 2026-05-04 17:47 | -29.90671 | -50.92508 | 4022 ft | 230 kts | 212° |
| 2026-05-04 17:47 | -29.92083 | -50.93271 | 4022 ft | 218 kts | 201° |
| 2026-05-04 17:48 | -29.93481 | -50.93889 | 3885 ft | 214 kts | 202° |
| 2026-05-04 17:48 | -29.94878 | -50.94513 | 3642 ft | 215 kts | 202° |
| 2026-05-04 17:48 | -29.96243 | -50.95124 | 3445 ft | 207 kts | 202° |
| 2026-05-04 17:48 | -29.97569 | -50.95717 | 3198 ft | 202 kts | 202° |
| 2026-05-04 17:49 | -29.98730 | -50.96528 | 2952 ft | 193 kts | 224° |
| 2026-05-04 17:49 | -29.99488 | -50.97724 | 2743 ft | 178 kts | 246° |
| 2026-05-04 17:49 | -29.99797 | -50.99048 | 2540 ft | 165 kts | 266° |
| 2026-05-04 17:49 | -29.99786 | -51.00326 | 2388 ft | 153 kts | 272° |
| 2026-05-04 17:50 | -29.99760 | -51.01532 | 2211 ft | 147 kts | 272° |
| 2026-05-04 17:50 | -29.99737 | -51.02668 | 2044 ft | 140 kts | 273° |
| 2026-05-04 17:50 | -29.99716 | -51.03779 | 1892 ft | 138 kts | 272° |
| 2026-05-04 17:50 | -29.99694 | -51.04887 | 1734 ft | 137 kts | 272° |
| 2026-05-04 17:51 | -29.99672 | -51.05982 | 1581 ft | 137 kts | 272° |
| 2026-05-04 17:51 | -29.99650 | -51.07080 | 1418 ft | 137 kts | 272° |
| 2026-05-04 17:51 | -29.99628 | -51.08172 | 1224 ft | 136 kts | 272° |
| 2026-05-04 17:51 | -29.99606 | -51.09260 | 1038 ft | 136 kts | 272° |
| 2026-05-04 17:52 | -29.99586 | -51.10349 | 853 ft | 135 kts | 271° |
| 2026-05-04 17:52 | -29.99566 | -51.11431 | 671 ft | 135 kts | 271° |
| 2026-05-04 17:52 | -29.99545 | -51.12500 | 488 ft | 135 kts | 271° |
| 2026-05-04 17:52 | -29.99523 | -51.13578 | 316 ft | 134 kts | 272° |
| 2026-05-04 17:53 | -29.99502 | -51.14656 | 136 ft | 134 kts | 271° |
| 2026-05-04 17:53 | -29.99478 | -51.15719 | 25 ft | 123 kts | 272° |
| 2026-05-04 17:53 | -29.99470 | -51.16039 | 25 ft | 95 kts | 270° |